createdAt,value
2023-02-24T00:02:20.443Z,94.00
2023-02-24T00:05:20.253Z,94.00
2023-02-24T00:07:56.676Z,93.90
2023-02-24T00:10:26.022Z,93.80
2023-02-24T00:13:00.607Z,93.80
2023-02-24T00:15:35.377Z,93.70
2023-02-24T00:18:07.471Z,93.60
2023-02-24T00:20:58.208Z,93.60
2023-02-24T00:23:26.499Z,93.60
2023-02-24T00:26:10.761Z,93.60
2023-02-24T00:28:38.994Z,93.50
2023-02-24T00:31:11.738Z,93.40
2023-02-24T00:33:40.045Z,93.50
2023-02-24T00:36:23.636Z,93.50
2023-02-24T00:38:58.101Z,93.30
2023-02-24T00:41:29.486Z,93.30
2023-02-24T00:44:05.613Z,93.30
2023-02-24T00:46:37.847Z,93.20
2023-02-24T00:49:09.862Z,93.30
2023-02-24T00:51:42.726Z,93.50
2023-02-24T00:54:15.110Z,93.70
2023-02-24T00:56:45.588Z,93.90
2023-02-24T00:59:15.643Z,94.10
2023-02-24T01:01:46.342Z,94.60
2023-02-24T01:04:18.280Z,95.20
2023-02-24T01:06:49.071Z,95.40
2023-02-24T01:09:18.946Z,95.40
2023-02-24T01:12:11.072Z,95.30
2023-02-24T01:14:47.092Z,95.20
2023-02-24T01:17:15.753Z,95.30
2023-02-24T01:19:44.168Z,95.40
2023-02-24T01:22:14.620Z,95.30
2023-02-24T01:24:42.914Z,95.30
2023-02-24T01:27:11.756Z,95.50
2023-02-24T01:29:40.005Z,95.60
2023-02-24T01:32:42.750Z,95.80
2023-02-24T01:35:11.327Z,96.00
2023-02-24T01:37:40.260Z,95.90
2023-02-24T01:40:11.253Z,96.00
2023-02-24T01:42:41.933Z,95.90
2023-02-24T01:45:36.018Z,96.10
2023-02-24T01:48:08.699Z,96.10
2023-02-24T01:50:36.221Z,96.30
2023-02-24T01:53:06.373Z,96.40
2023-02-24T01:55:46.717Z,96.40
2023-02-24T01:58:20.398Z,96.60
2023-02-24T02:00:51.971Z,96.90
2023-02-24T02:03:31.431Z,97.40
2023-02-24T02:06:07.044Z,97.80
2023-02-24T02:08:38.428Z,98.00
2023-02-24T02:11:07.499Z,98.40
2023-02-24T02:13:37.853Z,98.60
2023-02-24T02:16:36.986Z,98.60
2023-02-24T02:22:30.944Z,99.10
2023-02-24T02:26:53.684Z,99.50
2023-02-24T02:36:22.017Z,99.70
2023-02-24T02:42:15.177Z,99.90
2023-02-24T02:44:59.138Z,99.90
2023-02-24T02:47:29.793Z,99.90
2023-02-24T02:50:54.248Z,99.90
2023-02-24T02:53:42.784Z,99.90
2023-02-24T02:57:29.520Z,99.90
2023-02-24T03:00:22.378Z,99.90
2023-02-24T03:03:05.384Z,99.90
2023-02-24T03:06:05.726Z,99.90
2023-02-24T03:08:38.535Z,99.90
2023-02-24T03:13:12.999Z,99.90
2023-02-24T03:15:47.447Z,99.90
2023-02-24T03:18:28.819Z,99.90
2023-02-24T03:21:07.121Z,99.90
2023-02-24T03:23:45.047Z,99.90
2023-02-24T03:26:30.603Z,99.90
2023-02-24T03:29:19.408Z,99.90
2023-02-24T03:32:22.109Z,99.90
2023-02-24T03:35:21.252Z,99.90
2023-02-24T03:38:52.923Z,99.90
2023-02-24T03:41:25.182Z,99.90
2023-02-24T03:43:54.770Z,99.90
2023-02-24T03:46:22.111Z,99.90
2023-02-24T03:48:58.828Z,99.90
2023-02-24T03:51:27.690Z,99.90
2023-02-24T03:54:30.147Z,99.90
2023-02-24T03:57:18.175Z,99.90
2023-02-24T04:03:41.678Z,99.90
2023-02-24T04:10:38.346Z,99.90
2023-02-24T04:15:11.952Z,99.90
2023-02-24T04:18:00.799Z,99.90
2023-02-24T04:20:30.398Z,99.90
2023-02-24T04:23:04.263Z,99.90
2023-02-24T04:25:32.979Z,99.90
2023-02-24T04:28:00.043Z,99.90
2023-02-24T04:31:06.276Z,99.90
2023-02-24T04:33:39.349Z,99.90
2023-02-24T04:36:12.491Z,99.90
2023-02-24T04:38:41.843Z,99.90
2023-02-24T04:41:20.376Z,99.90
2023-02-24T04:43:56.346Z,99.90
2023-02-24T04:46:24.961Z,99.90
2023-02-24T04:48:57.018Z,99.90
2023-02-24T04:51:23.301Z,99.90
2023-02-24T04:54:07.742Z,99.90
2023-02-24T04:56:40.498Z,99.90
2023-02-24T04:59:24.580Z,99.90
2023-02-24T05:02:02.167Z,99.90
2023-02-24T05:04:50.852Z,99.90
2023-02-24T05:07:34.800Z,99.90
2023-02-24T05:10:44.825Z,99.90
2023-02-24T05:13:20.859Z,99.90
2023-02-24T05:15:50.156Z,99.90
2023-02-24T05:18:18.032Z,99.90
2023-02-24T05:21:04.765Z,99.90
2023-02-24T05:23:46.142Z,99.90
2023-02-24T05:26:17.910Z,99.90
2023-02-24T05:28:48.372Z,99.90
2023-02-24T05:31:17.335Z,99.90
2023-02-24T05:33:47.695Z,99.90
2023-02-24T05:36:18.263Z,99.90
2023-02-24T05:38:45.250Z,99.90
2023-02-24T05:41:16.854Z,99.90
2023-02-24T05:43:47.429Z,99.90
2023-02-24T05:46:16.361Z,99.90
2023-02-24T05:48:55.964Z,99.90
2023-02-24T05:51:24.189Z,99.90
2023-02-24T05:54:40.095Z,99.90
2023-02-24T05:57:09.171Z,99.90
2023-02-24T06:00:38.865Z,99.90
2023-02-24T06:03:09.296Z,99.90
2023-02-24T06:05:39.084Z,99.90
2023-02-24T06:08:05.353Z,99.90
2023-02-24T06:10:34.301Z,99.90
2023-02-24T06:13:01.632Z,99.90
2023-02-24T06:15:28.441Z,99.90
2023-02-24T06:17:56.019Z,99.90
2023-02-24T06:20:27.474Z,99.90
2023-02-24T06:22:56.993Z,99.90
2023-02-24T06:25:39.252Z,99.90
2023-02-24T06:28:06.266Z,99.90
2023-02-24T06:30:33.362Z,99.90
2023-02-24T06:34:13.794Z,99.90
2023-02-24T06:36:40.368Z,99.90
2023-02-24T06:39:12.893Z,99.90
2023-02-24T06:41:40.935Z,99.90
2023-02-24T06:44:09.258Z,99.90
2023-02-24T06:46:36.237Z,99.90
2023-02-24T06:49:02.895Z,99.90
2023-02-24T06:51:30.476Z,99.90
2023-02-24T06:53:58.600Z,99.90
2023-02-24T06:56:26.929Z,99.90
2023-02-24T06:58:55.246Z,99.90
2023-02-24T07:01:28.302Z,99.90
2023-02-24T07:05:48.665Z,99.90
2023-02-24T07:08:26.936Z,99.90
2023-02-24T07:10:55.526Z,99.90
2023-02-24T07:13:48.073Z,99.90
2023-02-24T07:16:25.270Z,99.90
2023-02-24T07:18:56.208Z,99.90
2023-02-24T07:21:23.333Z,99.90
2023-02-24T07:23:58.609Z,99.90
2023-02-24T07:26:25.945Z,99.90
2023-02-24T07:28:55.041Z,99.90
2023-02-24T07:31:24.056Z,99.90
2023-02-24T07:33:57.176Z,99.90
2023-02-24T07:36:24.069Z,99.90
2023-02-24T07:38:54.687Z,99.90
2023-02-24T07:41:22.616Z,99.90
2023-02-24T07:43:52.574Z,99.90
2023-02-24T07:46:24.651Z,99.90
2023-02-24T07:48:51.731Z,99.90
2023-02-24T07:51:22.510Z,99.90
2023-02-24T07:53:58.764Z,99.80
2023-02-24T07:56:26.877Z,99.90
2023-02-24T07:59:07.599Z,99.90
2023-02-24T08:01:40.166Z,99.60
2023-02-24T08:04:07.871Z,99.80
2023-02-24T08:06:44.524Z,99.90
2023-02-24T08:09:46.734Z,99.90
2023-02-24T08:12:23.526Z,99.90
2023-02-24T08:14:52.812Z,99.50
2023-02-24T08:17:20.694Z,99.20
2023-02-24T08:19:48.109Z,99.20
2023-02-24T08:22:24.555Z,99.00
2023-02-24T08:25:06.787Z,98.00
2023-02-24T08:27:39.614Z,98.70
2023-02-24T08:30:08.659Z,98.30
2023-02-24T08:32:47.575Z,98.20
2023-02-24T08:35:16.702Z,98.10
2023-02-24T08:37:48.063Z,97.50
2023-02-24T08:40:37.677Z,97.80
2023-02-24T08:43:17.059Z,96.90
2023-02-24T08:45:46.162Z,96.80
2023-02-24T08:48:25.552Z,96.80
2023-02-24T08:50:56.096Z,96.30
2023-02-24T08:53:25.272Z,96.30
2023-02-24T08:55:51.389Z,96.60
2023-02-24T08:58:18.902Z,96.50
2023-02-24T09:00:50.288Z,96.80
2023-02-24T09:03:27.754Z,96.70
2023-02-24T09:06:18.059Z,96.70
2023-02-24T09:08:44.945Z,96.70
2023-02-24T09:11:15.569Z,96.70
2023-02-24T09:13:51.808Z,96.90
2023-02-24T09:16:20.458Z,96.80
2023-02-24T09:19:15.311Z,96.30
2023-02-24T09:22:21.445Z,96.00
2023-02-24T09:24:50.470Z,95.80
2023-02-24T09:27:17.321Z,95.80
2023-02-24T09:29:48.833Z,95.20
2023-02-24T09:32:16.042Z,95.10
2023-02-24T09:34:46.413Z,95.20
2023-02-24T09:37:25.178Z,95.00
2023-02-24T09:40:48.405Z,94.90
2023-02-24T09:43:29.531Z,94.70
2023-02-24T09:46:14.974Z,93.90
2023-02-24T09:49:07.776Z,93.90
2023-02-24T09:51:41.619Z,93.70
2023-02-24T09:54:18.482Z,93.70
2023-02-24T09:57:08.507Z,94.10
2023-02-24T10:00:01.536Z,94.00
2023-02-24T10:02:43.665Z,93.50
2023-02-24T10:05:21.593Z,93.50
2023-02-24T10:11:13.325Z,93.70
2023-02-24T10:13:53.369Z,93.50
2023-02-24T10:16:23.814Z,93.60
2023-02-24T10:19:26.328Z,93.20
2023-02-24T10:23:34.989Z,93.80
2023-02-24T10:26:07.729Z,92.60
2023-02-24T10:31:58.656Z,93.00
2023-02-24T10:34:31.027Z,93.40
2023-02-24T10:37:05.897Z,94.50
2023-02-24T10:39:32.756Z,94.50
2023-02-24T10:42:17.171Z,95.00
2023-02-24T10:45:01.186Z,95.00
2023-02-24T10:47:32.853Z,95.00
2023-02-24T10:50:00.725Z,95.00
2023-02-24T10:52:59.220Z,94.30
2023-02-24T10:55:58.688Z,94.60
2023-02-24T10:58:39.286Z,94.70
2023-02-24T11:01:27.629Z,93.60
2023-02-24T11:04:00.926Z,93.00
2023-02-24T11:07:32.279Z,92.40
2023-02-24T11:10:10.587Z,92.10
2023-02-24T11:13:09.892Z,91.70
2023-02-24T11:16:16.345Z,91.90
2023-02-24T11:18:47.096Z,92.50
2023-02-24T11:21:15.146Z,92.60
2023-02-24T11:23:49.635Z,93.10
2023-02-24T11:26:23.237Z,93.90
2023-02-24T11:29:46.146Z,94.50
2023-02-24T11:33:29.173Z,93.70
2023-02-24T11:36:05.025Z,92.90
2023-02-24T11:38:48.583Z,91.70
2023-02-24T11:41:38.136Z,92.10
2023-02-24T11:44:21.877Z,91.30
2023-02-24T11:46:57.018Z,91.90
2023-02-24T11:49:53.308Z,91.60
2023-02-24T11:52:28.937Z,91.10
2023-02-24T11:54:57.873Z,90.90
2023-02-24T11:57:37.360Z,91.00
2023-02-24T12:00:19.501Z,90.20
2023-02-24T12:02:59.701Z,90.70
2023-02-24T12:05:47.224Z,91.20
2023-02-24T12:08:48.673Z,91.20
2023-02-24T12:11:43.155Z,91.60
2023-02-24T12:16:18.440Z,92.00
2023-02-24T12:18:58.388Z,91.90
2023-02-24T12:21:31.137Z,91.70
2023-02-24T12:23:57.768Z,91.70
2023-02-24T12:26:47.177Z,91.90
2023-02-24T12:33:54.761Z,92.00
2023-02-24T12:37:58.627Z,90.40
2023-02-24T12:41:37.341Z,90.20
2023-02-24T12:44:43.197Z,90.30
2023-02-24T12:47:20.968Z,89.10
2023-02-24T12:53:43.137Z,88.10
2023-02-24T12:56:23.812Z,87.00
2023-02-24T12:58:53.827Z,86.30
2023-02-24T13:01:34.258Z,86.30
2023-02-24T13:04:55.483Z,84.10
2023-02-24T13:07:53.091Z,83.60
2023-02-24T13:17:29.294Z,81.90
2023-02-24T13:19:56.561Z,84.00
2023-02-24T13:22:32.811Z,85.30
2023-02-24T13:26:00.043Z,83.40
2023-02-24T13:28:35.331Z,83.10
2023-02-24T13:31:13.972Z,83.00
2023-02-24T13:33:43.489Z,82.10
2023-02-24T13:36:17.894Z,83.00
2023-02-24T13:40:27.367Z,83.40
2023-02-24T13:43:01.343Z,81.80
2023-02-24T13:45:39.039Z,82.30
2023-02-24T13:51:17.675Z,82.70
2023-02-24T13:54:47.409Z,83.00
2023-02-24T14:00:34.461Z,82.40
2023-02-24T14:03:00.763Z,83.20
2023-02-24T14:05:33.955Z,83.60
2023-02-24T14:08:01.789Z,84.00
2023-02-24T14:10:34.639Z,84.40
2023-02-24T14:13:06.515Z,83.60
2023-02-24T14:15:32.869Z,82.00
2023-02-24T14:18:04.511Z,84.10
2023-02-24T14:20:41.763Z,82.70
2023-02-24T14:23:28.494Z,82.70
2023-02-24T14:25:58.359Z,81.70
2023-02-24T14:28:37.484Z,81.50
2023-02-24T14:31:14.596Z,82.00
2023-02-24T14:33:43.827Z,82.70
2023-02-24T14:37:15.626Z,83.10
2023-02-24T14:39:50.948Z,83.50
2023-02-24T14:42:18.515Z,84.60
2023-02-24T14:44:46.718Z,84.40
2023-02-24T14:47:14.044Z,85.40
2023-02-24T14:49:40.487Z,87.60
2023-02-24T14:53:48.536Z,88.40
2023-02-24T14:56:15.292Z,87.70
2023-02-24T15:00:35.231Z,87.10
2023-02-24T15:03:14.798Z,87.90
2023-02-24T15:05:44.944Z,88.10
2023-02-24T15:09:05.378Z,86.80
2023-02-24T15:11:32.701Z,87.30
2023-02-24T15:14:03.062Z,87.90
2023-02-24T15:16:36.020Z,86.60
2023-02-24T15:19:02.309Z,87.20
2023-02-24T15:21:40.106Z,87.60
2023-02-24T15:24:26.633Z,87.70
2023-02-24T15:26:57.415Z,87.10
2023-02-24T15:29:26.886Z,88.90
2023-02-24T15:31:54.669Z,87.60
2023-02-24T15:34:30.377Z,88.20
2023-02-24T15:37:02.954Z,88.50
2023-02-24T15:39:31.093Z,87.90
2023-02-24T15:42:37.128Z,87.80
2023-02-24T15:45:06.960Z,89.00
2023-02-24T15:47:43.942Z,88.70
2023-02-24T15:50:11.295Z,89.10
2023-02-24T15:52:37.611Z,89.20
2023-02-24T15:55:04.873Z,89.10
2023-02-24T15:57:31.906Z,89.00
2023-02-24T15:59:58.303Z,90.20
2023-02-24T16:02:24.804Z,89.80
2023-02-24T16:04:52.049Z,88.80
2023-02-24T16:07:28.898Z,90.10
2023-02-24T16:09:57.205Z,89.70
2023-02-24T16:12:47.260Z,88.70
2023-02-24T16:15:18.529Z,89.40
2023-02-24T16:17:45.258Z,89.60
2023-02-24T16:20:16.707Z,90.40
2023-02-24T16:22:43.179Z,91.10
2023-02-24T16:25:11.511Z,91.10
2023-02-24T16:27:37.648Z,90.70
2023-02-24T16:30:05.056Z,91.00
2023-02-24T16:32:31.740Z,91.00
2023-02-24T16:34:58.156Z,91.00
2023-02-24T16:37:27.459Z,91.60
2023-02-24T16:39:54.117Z,91.50
2023-02-24T16:42:21.912Z,92.00
2023-02-24T16:44:49.059Z,92.40
2023-02-24T16:47:18.984Z,92.00
2023-02-24T16:49:46.720Z,92.00
2023-02-24T16:52:12.995Z,91.60
2023-02-24T16:54:39.179Z,91.40
2023-02-24T16:57:06.469Z,91.80
2023-02-24T16:59:33.377Z,91.70
2023-02-24T17:02:01.838Z,91.00
2023-02-24T17:04:28.212Z,91.10
2023-02-24T17:06:55.279Z,91.70
2023-02-24T17:09:23.052Z,91.80
2023-02-24T17:11:50.659Z,91.60
2023-02-24T17:14:19.290Z,91.30
2023-02-24T17:16:46.103Z,91.60
2023-02-24T17:19:13.603Z,91.90
2023-02-24T17:21:43.313Z,91.90
2023-02-24T17:24:19.229Z,92.40
2023-02-24T17:26:45.481Z,93.00
2023-02-24T17:29:14.047Z,94.30
2023-02-24T17:31:41.664Z,93.90
2023-02-24T17:34:09.223Z,94.60
2023-02-24T17:36:36.322Z,94.90
2023-02-24T17:39:02.667Z,95.20
2023-02-24T17:41:29.815Z,95.90
2023-02-24T17:43:57.604Z,95.80
2023-02-24T17:46:24.115Z,96.40
2023-02-24T17:48:51.532Z,96.40
2023-02-24T17:51:18.276Z,96.90
2023-02-24T17:53:44.800Z,96.90
2023-02-24T17:56:46.412Z,97.20
2023-02-24T17:59:12.596Z,97.60
2023-02-24T18:01:38.902Z,98.00
2023-02-24T18:04:06.189Z,97.90
2023-02-24T18:06:32.348Z,97.80
2023-02-24T18:08:59.999Z,97.90
2023-02-24T18:11:26.171Z,98.00
2023-02-24T18:13:54.898Z,98.00
2023-02-24T18:16:22.857Z,98.70
2023-02-24T18:18:49.812Z,98.50
2023-02-24T18:21:16.458Z,98.40
2023-02-24T18:23:42.595Z,98.70
2023-02-24T18:26:11.379Z,98.80
2023-02-24T18:28:37.740Z,98.80
2023-02-24T18:31:16.207Z,98.90
2023-02-24T18:33:43.695Z,99.40
2023-02-24T18:36:11.250Z,99.20
2023-02-24T18:38:38.838Z,99.40
2023-02-24T18:41:12.100Z,99.40
2023-02-24T18:43:41.389Z,99.20
2023-02-24T18:46:12.500Z,99.30
2023-02-24T18:48:41.015Z,99.40
2023-02-24T18:51:09.671Z,99.70
2023-02-24T18:53:38.230Z,99.80
2023-02-24T18:56:26.934Z,99.90
2023-02-24T18:58:57.894Z,99.90
2023-02-24T19:01:37.113Z,99.90
2023-02-24T19:04:06.027Z,99.90
2023-02-24T19:06:33.294Z,99.90
2023-02-24T19:09:06.337Z,99.90
2023-02-24T19:11:34.660Z,99.90
2023-02-24T19:14:02.574Z,99.90
2023-02-24T19:16:30.286Z,99.90
2023-02-24T19:18:58.214Z,99.90
2023-02-24T19:21:31.839Z,99.90
2023-02-24T19:24:03.414Z,99.40
2023-02-24T19:26:31.212Z,99.20
2023-02-24T19:29:00.649Z,98.90
2023-02-24T19:31:33.600Z,98.20
2023-02-24T19:34:09.349Z,97.70
2023-02-24T19:36:38.766Z,97.30
2023-02-24T19:39:29.162Z,96.80
2023-02-24T19:42:06.213Z,96.50
2023-02-24T19:44:33.373Z,96.70
2023-02-24T19:47:04.726Z,95.70
2023-02-24T19:49:41.631Z,96.00
2023-02-24T19:52:17.130Z,96.10
2023-02-24T19:54:58.121Z,94.90
2023-02-24T19:57:33.059Z,94.70
2023-02-24T20:00:01.203Z,94.40
2023-02-24T20:02:35.842Z,94.30
2023-02-24T20:05:04.195Z,94.20
2023-02-24T20:07:35.720Z,93.80
2023-02-24T20:10:04.737Z,93.60
2023-02-24T20:12:48.281Z,93.60
2023-02-24T20:15:18.755Z,93.90
2023-02-24T20:17:49.843Z,93.70
2023-02-24T20:20:25.086Z,93.50
2023-02-24T20:23:04.924Z,94.00
2023-02-24T20:25:37.899Z,94.30
2023-02-24T20:28:15.759Z,94.40
2023-02-24T20:30:43.230Z,94.20
2023-02-24T20:33:11.944Z,94.40
2023-02-24T20:35:44.692Z,94.40
2023-02-24T20:38:12.629Z,94.30
2023-02-24T20:40:49.601Z,94.70
2023-02-24T20:43:18.810Z,94.40
2023-02-24T20:45:47.639Z,94.50
2023-02-24T20:48:17.861Z,94.50
2023-02-24T20:50:44.864Z,94.50
2023-02-24T20:53:13.081Z,94.60
2023-02-24T20:55:42.847Z,95.20
2023-02-24T20:58:13.169Z,94.90
2023-02-24T21:00:47.765Z,94.90
2023-02-24T21:03:17.243Z,94.80
2023-02-24T21:05:47.181Z,95.10
2023-02-24T21:08:23.446Z,95.10
2023-02-24T21:10:56.500Z,95.30
2023-02-24T21:13:24.321Z,94.70
2023-02-24T21:15:57.763Z,94.90
2023-02-24T21:18:25.276Z,94.70
2023-02-24T21:20:55.455Z,94.60
2023-02-24T21:23:23.157Z,94.60
2023-02-24T21:25:54.147Z,95.00
2023-02-24T21:28:22.740Z,94.90
2023-02-24T21:30:51.686Z,94.80
2023-02-24T21:33:26.382Z,94.50
2023-02-24T21:36:04.586Z,94.90
2023-02-24T21:38:32.032Z,94.60
2023-02-24T21:41:04.007Z,95.20
2023-02-24T21:43:30.452Z,95.40
2023-02-24T21:46:00.507Z,95.60
2023-02-24T21:48:28.235Z,95.30
2023-02-24T21:51:09.198Z,94.90
2023-02-24T21:53:38.692Z,95.40
2023-02-24T21:56:16.200Z,94.60
2023-02-24T21:58:54.501Z,94.40
2023-02-24T22:01:24.565Z,94.40
2023-02-24T22:03:55.592Z,94.70
2023-02-24T22:06:22.462Z,94.50
2023-02-24T22:08:49.904Z,94.20
2023-02-24T22:11:20.603Z,94.50
2023-02-24T22:13:47.857Z,94.40
2023-02-24T22:16:23.468Z,94.20
2023-02-24T22:18:52.256Z,94.00
2023-02-24T22:21:20.657Z,93.70
2023-02-24T22:23:51.819Z,94.00
2023-02-24T22:26:19.486Z,94.00
2023-02-24T22:28:46.999Z,94.30
2023-02-24T22:31:16.274Z,94.50
2023-02-24T22:33:44.176Z,94.90
2023-02-24T22:36:16.280Z,94.50
2023-02-24T22:38:47.600Z,94.10
2023-02-24T22:41:16.288Z,94.10
2023-02-24T22:43:42.756Z,94.40
2023-02-24T22:46:12.222Z,93.80
2023-02-24T22:48:38.793Z,93.70
2023-02-24T22:51:07.361Z,93.80
2023-02-24T22:53:35.972Z,93.70
2023-02-24T22:56:03.729Z,93.80
2023-02-24T22:58:32.100Z,93.50
2023-02-24T23:00:58.983Z,94.00
2023-02-24T23:03:30.995Z,93.90
2023-02-24T23:06:00.136Z,94.20
2023-02-24T23:08:27.380Z,94.40
2023-02-24T23:10:53.997Z,94.30
2023-02-24T23:13:21.304Z,94.50
2023-02-24T23:15:49.088Z,94.60
2023-02-24T23:18:16.849Z,94.50
2023-02-24T23:20:45.062Z,94.60
2023-02-24T23:23:11.892Z,94.50
2023-02-24T23:25:39.102Z,94.30
2023-02-24T23:28:06.368Z,94.50
2023-02-24T23:30:33.087Z,94.50
2023-02-24T23:33:00.969Z,94.50
2023-02-24T23:35:28.117Z,94.40
2023-02-24T23:37:54.408Z,94.80
2023-02-24T23:40:26.343Z,94.70
2023-02-24T23:42:52.744Z,94.20
2023-02-24T23:45:19.143Z,94.20
2023-02-24T23:47:45.455Z,94.00
2023-02-24T23:50:12.972Z,94.00
2023-02-24T23:52:39.490Z,93.80
2023-02-24T23:55:06.983Z,93.90
2023-02-24T23:57:34.406Z,94.50
